Pagina principale
METAR-TAF:

METAR-TAF

Aeroporti :

Capo Bellavista

Tortolì, Italia

latitudine: 39-56N, longitudine: 009-43E, altezza: 138 m

Osservazione

Il bollettino è stato emesso 43 minuti fa, alle 09:55 UTC
Vento 6 kt da est
Temperature 14°C
Umidità 82%
Pressione 1009 hPa
Visibilità 10 km o più
Nubi sparse ad un'altezza di 2000 ft
Poco nuvoloso ad un'altezza di 2500 ft, Cumulo congesto.

METAR: LIEB 090955Z 09006KT 9999 SCT020 FEW025TCU 14/11 Q1009 RMK BKN SCT080 QUK 2 QUL 0 VIS MAR 20 KM MON NW CIME INC VIS MIN 9999

Ora: 11:38 (10:38 UTC)


TAF: mancante

Osservazioni e previsioni meteorologiche di più di 4000 aeroporti (messaggi METAR e TAF).

Le stazioni disponibili sono rappresentate dai dischi gialli e rossi sulla carta.

Puntare il mouse per vedere il nome della stazione.

Clicca sopra per visualizzare le osservazioni e previsioni meteorologiche.

Per cambiare la mappa : fare clic sui pulsanti verdi con una croce nera per ingrandire, il pulsante verde con un trattino per diminuire, o sulla freccia verde per le mappe adiacenti.


METAR-TAF: